createdAt,value
2022-08-22T00:00:32.417Z,24.3
2022-08-22T00:01:41.554Z,24.4
2022-08-22T00:03:49.229Z,24.4
2022-08-22T00:04:51.441Z,24.5
2022-08-22T00:05:53.934Z,24.6
2022-08-22T00:06:56.420Z,24.4
2022-08-22T00:07:59.221Z,24.5
2022-08-22T00:09:02.234Z,24.4
2022-08-22T00:10:04.422Z,24.4
2022-08-22T00:11:06.908Z,24.5
2022-08-22T00:12:09.368Z,24.4
2022-08-22T00:13:11.570Z,24.5
2022-08-22T00:14:14.044Z,24.4
2022-08-22T00:16:21.518Z,24.4
2022-08-22T00:17:24.003Z,24.5
2022-08-22T00:18:26.478Z,24.5
2022-08-22T00:19:28.417Z,24.6
2022-08-22T00:20:30.882Z,24.6
2022-08-22T00:21:33.369Z,24.5
2022-08-22T00:22:39.330Z,24.6
2022-08-22T00:23:41.545Z,24.5
2022-08-22T00:24:43.457Z,24.5
2022-08-22T00:25:45.358Z,24.6
2022-08-22T00:26:47.832Z,24.6
2022-08-22T00:27:50.327Z,24.5
2022-08-22T00:28:52.305Z,24.5
2022-08-22T00:29:54.530Z,24.5
2022-08-22T00:30:56.995Z,24.6
2022-08-22T00:31:58.916Z,24.5
2022-08-22T00:33:01.094Z,24.6
2022-08-22T00:34:03.305Z,24.6
2022-08-22T00:35:05.511Z,24.5
2022-08-22T00:36:07.986Z,24.6
2022-08-22T00:37:10.457Z,24.5
2022-08-22T00:38:12.672Z,24.6
2022-08-22T00:39:15.149Z,24.5
2022-08-22T00:40:17.449Z,24.6
2022-08-22T00:41:19.618Z,24.5
2022-08-22T00:43:27.087Z,24.6
2022-08-22T00:44:29.582Z,24.5
2022-08-22T00:45:32.041Z,24.5
2022-08-22T00:46:34.526Z,24.7
2022-08-22T00:47:36.994Z,24.5
2022-08-22T00:48:39.179Z,24.5
2022-08-22T00:49:42.389Z,24.5
2022-08-22T00:50:44.637Z,24.6
2022-08-22T00:51:46.827Z,24.6
2022-08-22T00:52:49.317Z,24.5
2022-08-22T00:53:55.773Z,24.6
2022-08-22T00:54:58.262Z,24.6
2022-08-22T00:56:00.726Z,24.6
2022-08-22T00:57:02.931Z,24.6
2022-08-22T00:58:05.105Z,24.6
2022-08-22T01:00:12.029Z,24.6
2022-08-22T01:01:14.444Z,24.6
2022-08-22T01:02:16.825Z,24.5
2022-08-22T01:03:19.292Z,24.6
2022-08-22T01:04:21.764Z,24.6
2022-08-22T01:05:23.702Z,24.6
2022-08-22T01:06:25.892Z,24.6
2022-08-22T01:08:33.063Z,24.7
2022-08-22T01:09:35.543Z,24.6
2022-08-22T01:10:38.021Z,24.6
2022-08-22T01:11:40.198Z,24.6
2022-08-22T01:12:42.110Z,24.5
2022-08-22T01:13:44.602Z,24.7
2022-08-22T01:14:46.790Z,24.6
2022-08-22T01:15:49.275Z,24.6
2022-08-22T01:16:51.746Z,24.6
2022-08-22T01:17:54.362Z,24.6
2022-08-22T01:18:57.751Z,24.4
2022-08-22T01:19:59.955Z,24.6
2022-08-22T01:21:02.166Z,24.8
2022-08-22T01:22:04.667Z,24.6
2022-08-22T01:23:07.148Z,24.7
2022-08-22T01:24:09.076Z,24.6
2022-08-22T01:25:13.344Z,24.6
2022-08-22T01:27:22.905Z,24.7
2022-08-22T01:28:25.890Z,24.6
2022-08-22T01:29:29.316Z,24.6
2022-08-22T01:30:33.418Z,24.6
2022-08-22T01:31:39.381Z,24.6
2022-08-22T01:32:41.585Z,24.8
2022-08-22T01:33:44.061Z,24.6
2022-08-22T01:34:45.987Z,24.6
2022-08-22T01:35:48.176Z,24.7
2022-08-22T01:36:50.112Z,24.6
2022-08-22T01:37:52.317Z,24.6
2022-08-22T01:38:55.022Z,24.6
2022-08-22T01:39:57.385Z,24.6
2022-08-22T01:41:00.368Z,24.5
2022-08-22T01:42:03.089Z,24.7
2022-08-22T01:43:05.305Z,24.7
2022-08-22T01:44:07.495Z,24.6
2022-08-22T01:45:09.977Z,24.6
2022-08-22T01:46:12.461Z,24.6
2022-08-22T01:47:17.956Z,24.5
2022-08-22T01:48:20.727Z,24.6
2022-08-22T01:49:24.141Z,24.6
2022-08-22T01:50:26.076Z,24.8
2022-08-22T01:51:28.551Z,24.6
2022-08-22T01:52:30.742Z,24.7
2022-08-22T01:53:33.213Z,24.6
2022-08-22T01:54:36.980Z,24.6
2022-08-22T01:55:40.207Z,24.8
2022-08-22T01:56:42.123Z,24.7
2022-08-22T01:57:44.293Z,24.6
2022-08-22T01:58:47.255Z,24.8
2022-08-22T01:59:49.721Z,24.7
2022-08-22T02:00:51.986Z,24.5
2022-08-22T02:01:54.568Z,24.7
2022-08-22T02:02:56.788Z,24.9
2022-08-22T02:03:59.272Z,24.6
2022-08-22T02:05:01.767Z,24.6
2022-08-22T02:06:04.713Z,24.6
2022-08-22T02:07:06.918Z,24.5
2022-08-22T02:08:09.404Z,24.7
2022-08-22T02:09:11.879Z,24.6
2022-08-22T02:10:13.818Z,24.6
2022-08-22T02:11:16.290Z,24.8
2022-08-22T02:13:23.788Z,24.6
2022-08-22T02:14:26.267Z,24.7
2022-08-22T02:15:28.432Z,24.7
2022-08-22T02:16:30.640Z,24.6
2022-08-22T02:17:32.833Z,24.6
2022-08-22T02:18:35.312Z,24.6
2022-08-22T02:19:37.819Z,24.7
2022-08-22T02:20:40.074Z,24.7
2022-08-22T02:21:42.553Z,24.7
2022-08-22T02:22:45.060Z,24.6
2022-08-22T02:23:47.253Z,24.8
2022-08-22T02:24:49.442Z,24.6
2022-08-22T02:25:51.919Z,24.6
2022-08-22T02:26:54.418Z,24.7
2022-08-22T02:27:56.687Z,24.6
2022-08-22T02:28:59.900Z,24.5
2022-08-22T02:30:02.455Z,24.8
2022-08-22T02:31:06.471Z,24.8
2022-08-22T02:32:08.945Z,24.8
2022-08-22T02:33:11.163Z,24.7
2022-08-22T02:34:13.641Z,24.7
2022-08-22T02:35:16.124Z,24.7
2022-08-22T02:36:18.600Z,24.7
2022-08-22T02:37:21.102Z,24.6
2022-08-22T02:38:23.585Z,24.7
2022-08-22T02:39:26.064Z,24.7
2022-08-22T02:40:28.541Z,24.8
2022-08-22T02:41:31.551Z,24.8
2022-08-22T02:42:34.051Z,24.7
2022-08-22T02:43:35.967Z,24.6
2022-08-22T02:44:38.458Z,24.6
2022-08-22T02:45:40.959Z,24.5
2022-08-22T02:46:43.155Z,24.7
2022-08-22T02:47:45.363Z,24.7
2022-08-22T02:48:47.842Z,24.8
2022-08-22T02:49:52.159Z,24.6
2022-08-22T02:50:58.617Z,24.7
2022-08-22T02:52:01.100Z,24.7
2022-08-22T02:53:03.280Z,24.7
2022-08-22T02:54:05.479Z,24.6
2022-08-22T02:55:07.672Z,24.7
2022-08-22T02:56:10.149Z,24.6
2022-08-22T02:58:17.051Z,24.7
2022-08-22T02:59:19.534Z,24.6
2022-08-22T03:01:27.003Z,24.8
2022-08-22T03:02:29.506Z,24.7
2022-08-22T03:03:31.986Z,24.6
2022-08-22T03:04:34.205Z,24.7
2022-08-22T03:05:36.494Z,24.8
2022-08-22T03:06:38.973Z,24.7
2022-08-22T03:07:40.620Z,24.8
2022-08-22T03:09:48.100Z,24.7
2022-08-22T03:10:50.583Z,24.7
2022-08-22T03:11:53.052Z,24.7
2022-08-22T03:14:00.255Z,24.6
2022-08-22T03:15:02.443Z,24.7
2022-08-22T03:16:04.652Z,24.5
2022-08-22T03:17:06.844Z,24.5
2022-08-22T03:18:09.327Z,24.5
2022-08-22T03:20:16.533Z,24.5
2022-08-22T03:21:18.711Z,24.4
2022-08-22T03:22:21.214Z,24.6
2022-08-22T03:23:23.728Z,24.4
2022-08-22T03:24:26.203Z,24.5
2022-08-22T03:25:28.685Z,24.4
2022-08-22T03:26:31.151Z,24.5
2022-08-22T03:27:33.961Z,24.4
2022-08-22T03:28:36.217Z,24.5
2022-08-22T03:29:38.699Z,24.4
2022-08-22T03:30:40.864Z,24.4
2022-08-22T03:31:43.360Z,24.3
2022-08-22T03:32:45.835Z,24.4
2022-08-22T03:33:48.320Z,24.3
2022-08-22T03:34:50.514Z,24.2
2022-08-22T03:35:52.990Z,24.4
2022-08-22T03:36:55.186Z,24.3
2022-08-22T03:37:58.010Z,24.3
2022-08-22T03:39:01.032Z,24.3
2022-08-22T03:40:07.914Z,24.2
2022-08-22T03:41:10.701Z,24.4
2022-08-22T03:42:13.181Z,24.3
2022-08-22T03:43:15.658Z,24.3
2022-08-22T03:44:17.853Z,24.4
2022-08-22T03:45:20.334Z,24.3
2022-08-22T03:46:22.814Z,24.4
2022-08-22T03:48:30.292Z,24.3
2022-08-22T03:49:32.796Z,24.3
2022-08-22T03:50:35.927Z,24.3
2022-08-22T03:51:38.129Z,24.2
2022-08-22T03:52:40.597Z,24.3
2022-08-22T03:53:43.078Z,24.3
2022-08-22T03:54:45.315Z,24.3
2022-08-22T03:55:47.801Z,24.3
2022-08-22T03:57:55.211Z,24.3
2022-08-22T03:58:57.842Z,24.2
2022-08-22T04:00:00.780Z,24.3
2022-08-22T04:01:03.360Z,24.2
2022-08-22T04:03:10.752Z,24.2
2022-08-22T04:04:13.241Z,24.1
2022-08-22T04:05:16.778Z,24.2
2022-08-22T04:06:22.784Z,24.3
2022-08-22T04:08:30.260Z,24
2022-08-22T04:09:33.118Z,24.2
2022-08-22T04:10:39.574Z,24.2
2022-08-22T04:11:42.052Z,24.2
2022-08-22T04:12:44.549Z,24.2
2022-08-22T04:13:47.030Z,24.3
2022-08-22T04:14:49.223Z,24.1
2022-08-22T04:15:51.712Z,24.2
2022-08-22T04:16:54.177Z,24.2
2022-08-22T04:17:58.223Z,24.1
2022-08-22T04:19:01.426Z,24.2
2022-08-22T04:20:03.905Z,24.2
2022-08-22T04:21:06.083Z,24.2
2022-08-22T04:22:08.288Z,24.2
2022-08-22T04:23:10.775Z,24.2
2022-08-22T04:24:13.260Z,24.1
2022-08-22T04:25:15.731Z,24.2
2022-08-22T04:26:18.228Z,24.1
2022-08-22T04:27:22.439Z,24.2
2022-08-22T04:28:24.970Z,24.1
2022-08-22T04:29:27.451Z,24.3
2022-08-22T04:30:29.933Z,24.3
2022-08-22T04:31:32.117Z,24.2
2022-08-22T04:32:34.599Z,24.1
2022-08-22T04:33:37.069Z,24.1
2022-08-22T04:34:39.557Z,24.2
2022-08-22T04:35:41.482Z,24.2
2022-08-22T04:36:43.959Z,24.2
2022-08-22T04:37:46.151Z,24.2
2022-08-22T04:38:48.643Z,24.2
2022-08-22T04:39:51.241Z,24.2
2022-08-22T04:40:53.728Z,24.1
2022-08-22T04:44:06.189Z,24.1
2022-08-22T04:45:08.591Z,24
2022-08-22T04:46:10.802Z,24.2
2022-08-22T04:47:13.022Z,24.2
2022-08-22T04:48:15.497Z,24.2
2022-08-22T04:49:17.974Z,24.2
2022-08-22T04:50:20.438Z,24.1
2022-08-22T04:51:22.640Z,24.1
2022-08-22T04:53:30.125Z,24.1
2022-08-22T04:54:32.611Z,24.1
2022-08-22T04:55:34.814Z,24.1
2022-08-22T04:56:37.298Z,24.2
2022-08-22T04:57:39.212Z,24
2022-08-22T04:58:41.693Z,24.1
2022-08-22T04:59:44.285Z,24.1
2022-08-22T05:00:53.850Z,24.1
2022-08-22T05:01:56.153Z,24.1
2022-08-22T05:02:58.972Z,24.1
2022-08-22T05:04:01.178Z,24.2
2022-08-22T05:05:03.121Z,24.1
2022-08-22T05:06:05.326Z,24.1
2022-08-22T05:07:07.518Z,24.1
2022-08-22T05:10:19.427Z,24
2022-08-22T05:11:21.358Z,24.1
2022-08-22T05:12:23.833Z,24.2
2022-08-22T05:13:29.052Z,24.1
2022-08-22T05:14:31.254Z,24.1
2022-08-22T05:15:33.447Z,24.2
2022-08-22T05:16:35.646Z,24.1
2022-08-22T05:17:37.572Z,24.1
2022-08-22T05:18:39.781Z,24
2022-08-22T05:19:41.970Z,24.3
2022-08-22T05:20:43.902Z,24.1
2022-08-22T05:21:46.105Z,24.1
2022-08-22T05:22:48.310Z,24.2
2022-08-22T05:23:50.518Z,24.1
2022-08-22T05:24:53.002Z,24.1
2022-08-22T05:25:55.818Z,24.2
2022-08-22T05:26:58.035Z,24.1
2022-08-22T05:28:00.899Z,24.2
2022-08-22T05:29:03.934Z,24.2
2022-08-22T05:30:05.857Z,24.1
2022-08-22T05:31:07.791Z,24
2022-08-22T05:32:10.272Z,24.2
2022-08-22T05:33:12.789Z,24.1
2022-08-22T05:34:15.266Z,24
2022-08-22T05:35:17.749Z,24.1
2022-08-22T05:36:19.676Z,24.1
2022-08-22T05:37:22.178Z,24.2
2022-08-22T05:38:24.121Z,24.1
2022-08-22T05:39:28.344Z,24.1
2022-08-22T05:40:30.250Z,24
2022-08-22T05:41:32.465Z,24
2022-08-22T05:42:34.942Z,24.1
2022-08-22T05:43:37.433Z,24.1
2022-08-22T05:44:39.637Z,24
2022-08-22T05:45:42.119Z,24.1
2022-08-22T05:46:44.596Z,24
2022-08-22T05:47:46.818Z,24.1
2022-08-22T05:48:49.310Z,24.1
2022-08-22T05:49:51.566Z,24.1
2022-08-22T05:50:54.041Z,24
2022-08-22T05:51:56.525Z,24.1
2022-08-22T05:52:58.995Z,24
2022-08-22T05:54:01.468Z,24.1
2022-08-22T05:55:03.403Z,24.1
2022-08-22T05:56:05.322Z,24
2022-08-22T05:57:08.573Z,24
2022-08-22T05:58:10.773Z,24
2022-08-22T05:59:13.248Z,24
2022-08-22T06:01:20.830Z,24
2022-08-22T06:02:23.288Z,24.2
2022-08-22T06:03:25.758Z,24
2022-08-22T06:04:27.952Z,24.1
2022-08-22T06:05:29.615Z,24.1
2022-08-22T06:06:31.823Z,24.2
2022-08-22T06:07:34.299Z,24
2022-08-22T06:08:36.781Z,24
2022-08-22T06:09:38.990Z,24.1
2022-08-22T06:10:41.480Z,24
2022-08-22T06:12:53.994Z,24.1
2022-08-22T06:14:00.465Z,24.1
2022-08-22T06:16:09.845Z,24
2022-08-22T06:17:15.238Z,24.1
2022-08-22T06:18:17.442Z,24.1
2022-08-22T06:19:20.425Z,24
2022-08-22T06:20:22.635Z,23.9
2022-08-22T06:21:25.116Z,24.1
2022-08-22T06:22:28.098Z,24
2022-08-22T06:23:30.579Z,24
2022-08-22T06:24:33.064Z,24.1
2022-08-22T06:25:35.283Z,24.1
2022-08-22T06:26:37.478Z,24
2022-08-22T06:27:39.707Z,24.1
2022-08-22T06:29:46.914Z,24.1
2022-08-22T06:30:49.397Z,24
2022-08-22T06:31:51.603Z,24.1
2022-08-22T06:33:59.078Z,24.1
2022-08-22T06:35:02.394Z,24.1
2022-08-22T06:36:08.095Z,24.1
2022-08-22T06:37:10.042Z,24
2022-08-22T06:38:12.255Z,23.9
2022-08-22T06:39:14.458Z,24.1
2022-08-22T06:40:16.813Z,24.1
2022-08-22T06:41:19.656Z,24
2022-08-22T06:42:21.854Z,24.1
2022-08-22T06:43:24.086Z,24
2022-08-22T06:44:26.114Z,24
2022-08-22T06:45:28.595Z,24
2022-08-22T06:46:31.354Z,24
2022-08-22T06:47:33.544Z,24
2022-08-22T06:48:36.017Z,24
2022-08-22T06:49:37.941Z,24.1
2022-08-22T06:50:40.422Z,24.1
2022-08-22T06:51:42.358Z,24
2022-08-22T06:52:44.544Z,24.1
2022-08-22T06:53:48.862Z,24.1
2022-08-22T06:54:51.136Z,24
2022-08-22T06:55:54.393Z,24.1
2022-08-22T06:56:56.870Z,24
2022-08-22T06:57:59.674Z,24
2022-08-22T06:59:03.786Z,24
2022-08-22T07:00:06.009Z,24.1
2022-08-22T07:03:18.468Z,23.9
2022-08-22T07:04:20.396Z,24.1
2022-08-22T07:05:22.318Z,24
2022-08-22T07:06:24.520Z,24.1
2022-08-22T07:07:26.727Z,24.1
2022-08-22T07:08:28.943Z,24
2022-08-22T07:09:31.143Z,24
2022-08-22T07:10:33.647Z,24.1
2022-08-22T07:11:35.853Z,24
2022-08-22T07:12:38.335Z,24
2022-08-22T07:13:42.044Z,24.1
2022-08-22T07:14:44.545Z,23.9
2022-08-22T07:15:47.037Z,23.9
2022-08-22T07:16:49.524Z,24
2022-08-22T07:17:51.737Z,24.1
2022-08-22T07:18:54.212Z,24
2022-08-22T07:19:56.416Z,23.9
2022-08-22T07:20:58.601Z,24.1
2022-08-22T07:22:03.832Z,24
2022-08-22T07:23:06.331Z,23.9
2022-08-22T07:24:08.884Z,24
2022-08-22T07:25:11.374Z,24
2022-08-22T07:26:13.577Z,24
2022-08-22T07:27:16.448Z,23.9
2022-08-22T07:29:28.203Z,24
2022-08-22T07:30:35.276Z,24
2022-08-22T07:31:43.237Z,24.1
2022-08-22T07:32:46.367Z,23.9
2022-08-22T07:33:48.880Z,24.1
2022-08-22T07:34:50.784Z,24
2022-08-22T07:35:54.165Z,23.9
2022-08-22T07:36:56.388Z,24
2022-08-22T07:37:59.372Z,23.9
2022-08-22T07:39:02.791Z,24
2022-08-22T07:40:05.452Z,24.1
2022-08-22T07:41:08.243Z,24.1
2022-08-22T07:42:10.798Z,24
2022-08-22T07:43:13.044Z,24
2022-08-22T07:44:15.580Z,24
2022-08-22T07:45:18.167Z,24.1
2022-08-22T07:46:20.657Z,24
2022-08-22T07:48:28.142Z,24.1
2022-08-22T07:49:30.364Z,24
2022-08-22T07:50:32.009Z,24
2022-08-22T07:51:34.493Z,24
2022-08-22T07:52:36.963Z,24.1
2022-08-22T07:53:39.448Z,23.9
2022-08-22T07:54:41.957Z,24
2022-08-22T07:56:48.898Z,24
2022-08-22T07:57:51.390Z,24
2022-08-22T07:58:53.954Z,24.1
2022-08-22T07:59:56.175Z,24
2022-08-22T08:00:58.641Z,23.9
2022-08-22T08:02:01.063Z,24
2022-08-22T08:03:03.536Z,24.1
2022-08-22T08:04:06.042Z,24.1
2022-08-22T08:05:08.513Z,23.9
2022-08-22T08:06:10.700Z,23.9
2022-08-22T08:07:12.900Z,24
2022-08-22T08:08:16.436Z,24
2022-08-22T08:09:18.653Z,24
2022-08-22T08:10:21.141Z,24.1
2022-08-22T08:11:23.617Z,24
2022-08-22T08:12:26.102Z,24.1
2022-08-22T08:13:28.579Z,23.9
2022-08-22T08:14:30.799Z,24
2022-08-22T08:15:33.015Z,24
2022-08-22T08:16:35.235Z,24
2022-08-22T08:17:37.718Z,24.1
2022-08-22T08:18:39.936Z,24
2022-08-22T08:19:45.413Z,24.1
2022-08-22T08:20:47.627Z,23.9
2022-08-22T08:21:50.097Z,23.9
2022-08-22T08:22:52.594Z,23.9
2022-08-22T08:23:55.065Z,24
2022-08-22T08:24:57.274Z,23.9
2022-08-22T08:25:59.478Z,24
2022-08-22T08:27:01.977Z,24
2022-08-22T08:28:04.451Z,24
2022-08-22T08:29:06.662Z,24
2022-08-22T08:31:13.871Z,24
2022-08-22T08:32:16.083Z,24
2022-08-22T08:34:23.545Z,24
2022-08-22T08:35:26.105Z,23.9
2022-08-22T08:36:28.588Z,24
2022-08-22T08:37:31.075Z,23.9
2022-08-22T08:38:33.259Z,23.9
2022-08-22T08:39:35.865Z,24
2022-08-22T08:40:38.319Z,24
2022-08-22T08:41:41.004Z,23.9
2022-08-22T08:42:43.493Z,24
2022-08-22T08:43:45.972Z,24
2022-08-22T08:44:48.170Z,24
2022-08-22T08:45:50.386Z,23.9
2022-08-22T08:46:56.583Z,23.9
2022-08-22T08:47:58.656Z,24.1
2022-08-22T08:50:06.646Z,23.9
2022-08-22T08:51:12.365Z,23.9
2022-08-22T08:52:16.166Z,23.9
2022-08-22T08:53:18.648Z,24.1
2022-08-22T08:54:26.398Z,24
2022-08-22T08:55:30.421Z,24
2022-08-22T08:56:36.769Z,24
2022-08-22T08:57:44.523Z,23.9
2022-08-22T08:59:52.878Z,23.9
2022-08-22T09:00:57.588Z,24
2022-08-22T09:02:05.830Z,24
2022-08-22T09:03:08.054Z,23.9
2022-08-22T09:06:20.995Z,24
2022-08-22T09:07:23.873Z,24
2022-08-22T09:08:28.231Z,24
2022-08-22T09:09:32.852Z,24
2022-08-22T09:10:40.002Z,24
2022-08-22T09:11:46.237Z,24
2022-08-22T09:13:55.323Z,24
2022-08-22T09:14:57.340Z,24
2022-08-22T09:18:10.585Z,23.9
2022-08-22T09:19:14.033Z,24
2022-08-22T09:20:20.173Z,24
2022-08-22T09:22:34.935Z,23.9
2022-08-22T09:23:39.581Z,24
2022-08-22T09:24:45.304Z,23.9
2022-08-22T09:25:47.964Z,24
2022-08-22T09:26:51.320Z,24
2022-08-22T09:27:57.516Z,24
2022-08-22T09:29:02.963Z,23.9
2022-08-22T09:30:06.721Z,23.9
2022-08-22T09:32:19.676Z,23.9
2022-08-22T09:33:24.875Z,23.9
2022-08-22T09:34:31.340Z,24
2022-08-22T09:35:35.452Z,24
2022-08-22T09:36:37.929Z,24
2022-08-22T09:37:40.357Z,23.9
2022-08-22T09:39:50.134Z,24
2022-08-22T09:40:54.670Z,24
2022-08-22T09:42:03.244Z,24.1
2022-08-22T09:43:11.526Z,24
2022-08-22T09:44:18.220Z,23.9
2022-08-22T09:45:21.718Z,24
2022-08-22T09:48:33.361Z,24
2022-08-22T09:49:37.055Z,24
2022-08-22T09:51:44.250Z,23.9
2022-08-22T09:52:47.512Z,23.9
2022-08-22T09:54:54.754Z,23.9
2022-08-22T09:57:06.649Z,24
2022-08-22T09:59:15.325Z,23.9
2022-08-22T10:00:16.972Z,24
2022-08-22T10:01:23.096Z,23.9
2022-08-22T10:02:30.597Z,24
2022-08-22T10:05:45.496Z,23.9
2022-08-22T10:06:49.740Z,24
2022-08-22T10:07:53.388Z,23.9
2022-08-22T10:08:56.385Z,24
2022-08-22T10:10:00.996Z,24
2022-08-22T10:13:13.615Z,24
2022-08-22T10:15:20.606Z,23.9
2022-08-22T10:16:25.512Z,24
2022-08-22T10:17:27.981Z,23.9
2022-08-22T10:18:32.663Z,23.9
2022-08-22T10:19:35.401Z,24
2022-08-22T10:21:47.797Z,23.9
2022-08-22T10:22:50.005Z,23.9
2022-08-22T10:23:53.777Z,23.9
2022-08-22T10:26:00.979Z,23.9
2022-08-22T10:27:06.060Z,23.9
2022-08-22T10:29:13.889Z,23.9
2022-08-22T10:30:18.751Z,23.9
2022-08-22T10:31:22.867Z,23.9
2022-08-22T10:32:27.321Z,23.9
2022-08-22T10:33:31.496Z,23.9
2022-08-22T10:34:33.681Z,24
2022-08-22T10:35:36.280Z,23.9
2022-08-22T10:36:40.511Z,23.9
2022-08-22T10:38:47.991Z,23.9
2022-08-22T10:39:52.350Z,23.9
2022-08-22T10:40:56.165Z,24
2022-08-22T10:41:59.539Z,24
2022-08-22T10:43:01.721Z,24
2022-08-22T10:44:04.814Z,23.9
2022-08-22T10:45:06.654Z,23.8
2022-08-22T10:47:13.607Z,23.9
2022-08-22T10:48:20.286Z,23.9
2022-08-22T10:51:34.074Z,24
2022-08-22T10:52:39.955Z,23.9
2022-08-22T10:53:42.624Z,24
2022-08-22T10:54:44.552Z,23.9
2022-08-22T10:55:47.395Z,24
2022-08-22T10:56:50.019Z,23.9
2022-08-22T10:57:55.816Z,23.9
2022-08-22T11:00:03.149Z,23.9
2022-08-22T11:02:10.631Z,23.9
2022-08-22T11:04:18.388Z,23.9
2022-08-22T11:05:25.147Z,23.9
2022-08-22T11:06:29.412Z,24
2022-08-22T11:07:31.881Z,23.9
2022-08-22T11:08:37.363Z,24
2022-08-22T11:09:39.858Z,24
2022-08-22T11:10:41.939Z,23.9
2022-08-22T11:11:45.318Z,23.9
2022-08-22T11:12:51.624Z,23.9
2022-08-22T11:13:53.831Z,23.9
2022-08-22T11:14:57.035Z,23.9
2022-08-22T11:16:05.172Z,24.1
2022-08-22T11:18:17.402Z,24
2022-08-22T11:19:20.432Z,23.9
2022-08-22T11:20:22.877Z,23.9
2022-08-22T11:22:31.129Z,24
2022-08-22T11:23:33.834Z,23.9
2022-08-22T11:25:41.367Z,23.8
2022-08-22T11:27:50.176Z,23.9
2022-08-22T11:28:52.970Z,23.9
2022-08-22T11:29:57.961Z,23.9
2022-08-22T11:32:09.907Z,23.9
2022-08-22T11:33:14.045Z,24
2022-08-22T11:35:21.251Z,24
2022-08-22T11:38:36.580Z,24
2022-08-22T11:39:39.264Z,24
2022-08-22T11:40:42.336Z,23.9
2022-08-22T11:41:44.813Z,23.9
2022-08-22T11:42:50.290Z,23.9
2022-08-22T11:43:53.614Z,23.9
2022-08-22T11:44:58.332Z,24
2022-08-22T11:46:00.630Z,23.9
2022-08-22T11:47:08.250Z,23.9
2022-08-22T11:48:11.977Z,23.9
2022-08-22T11:49:14.556Z,23.8
2022-08-22T11:50:21.537Z,24
2022-08-22T11:51:25.806Z,23.9
2022-08-22T11:52:35.010Z,23.9
2022-08-22T11:53:37.692Z,24
2022-08-22T11:54:43.572Z,23.9
2022-08-22T11:55:47.805Z,24
2022-08-22T11:56:51.803Z,23.9
2022-08-22T11:57:54.733Z,23.9
2022-08-22T11:58:57.530Z,23.9
2022-08-22T11:59:59.730Z,23.9
2022-08-22T12:01:02.831Z,23.9
2022-08-22T12:03:14.017Z,23.9
2022-08-22T12:04:18.350Z,24
2022-08-22T12:06:25.668Z,23.9
2022-08-22T12:07:28.931Z,24.1
2022-08-22T12:08:31.710Z,23.9
2022-08-22T12:09:34.829Z,24
2022-08-22T12:10:41.724Z,24
2022-08-22T12:11:46.927Z,23.9
2022-08-22T12:12:51.635Z,23.9
2022-08-22T12:14:59.118Z,24
2022-08-22T12:16:01.824Z,23.9
2022-08-22T12:17:05.062Z,23.9
2022-08-22T12:19:17.081Z,24
2022-08-22T12:20:22.650Z,24
2022-08-22T12:21:28.129Z,23.9
2022-08-22T12:22:31.891Z,23.9
2022-08-22T12:24:39.086Z,23.9
2022-08-22T12:25:44.845Z,23.9
2022-08-22T12:26:51.918Z,23.9
2022-08-22T12:27:57.744Z,24
2022-08-22T12:29:01.186Z,24
2022-08-22T12:30:04.892Z,23.9
2022-08-22T12:31:10.366Z,23.9
2022-08-22T12:32:12.310Z,23.9
2022-08-22T12:34:21.873Z,23.9
2022-08-22T12:36:31.285Z,24
2022-08-22T12:38:39.437Z,24
2022-08-22T12:39:44.207Z,23.9
2022-08-22T12:40:50.210Z,24.1
2022-08-22T12:41:52.745Z,24
2022-08-22T12:42:55.727Z,23.9
2022-08-22T12:43:59.244Z,23.9
2022-08-22T12:45:04.238Z,23.9
2022-08-22T12:47:11.446Z,23.9
2022-08-22T12:48:19.612Z,24
2022-08-22T12:49:23.927Z,24
2022-08-22T12:50:26.119Z,23.9
2022-08-22T12:51:33.784Z,24
2022-08-22T12:52:37.577Z,24
2022-08-22T12:53:40.216Z,24
2022-08-22T12:54:44.654Z,24
2022-08-22T12:55:47.917Z,24
2022-08-22T12:56:50.399Z,24
2022-08-22T12:57:54.737Z,23.9
2022-08-22T12:58:58.447Z,24
2022-08-22T13:00:02.344Z,23.9
2022-08-22T13:01:06.841Z,24
2022-08-22T13:02:10.579Z,24
2022-08-22T13:03:13.574Z,23.9
2022-08-22T13:05:21.240Z,24
2022-08-22T13:06:27.233Z,24
2022-08-22T13:07:29.656Z,23.9
2022-08-22T13:08:32.426Z,24
2022-08-22T13:09:35.901Z,24
2022-08-22T13:10:38.667Z,23.9
2022-08-22T13:11:41.536Z,24
2022-08-22T13:12:44.811Z,23.9
2022-08-22T13:14:55.843Z,23.9
2022-08-22T13:15:57.947Z,24
2022-08-22T13:20:19.146Z,24
2022-08-22T13:21:21.639Z,24
2022-08-22T13:22:26.054Z,24
2022-08-22T13:23:31.801Z,23.9
2022-08-22T13:25:42.000Z,24
2022-08-22T13:26:44.489Z,24
2022-08-22T13:27:52.115Z,23.9
2022-08-22T13:29:59.927Z,24
2022-08-22T13:31:02.589Z,24
2022-08-22T13:32:07.110Z,23.9
2022-08-22T13:33:10.269Z,24
2022-08-22T13:34:13.816Z,24
2022-08-22T13:37:29.495Z,23.9
2022-08-22T13:38:31.697Z,23.9
2022-08-22T13:39:34.302Z,23.9
2022-08-22T13:40:38.048Z,23.9
2022-08-22T13:42:48.386Z,24
2022-08-22T13:43:54.853Z,24
2022-08-22T13:46:05.471Z,24
2022-08-22T13:48:16.505Z,23.9
2022-08-22T13:50:25.210Z,24.1
2022-08-22T13:51:28.542Z,23.9
2022-08-22T13:53:38.602Z,23.9
2022-08-22T13:54:45.567Z,23.9
2022-08-22T13:55:49.478Z,23.9
2022-08-22T13:56:52.121Z,23.9
2022-08-22T13:57:56.498Z,23.9
2022-08-22T13:59:00.538Z,23.9
2022-08-22T14:01:07.786Z,24
2022-08-22T14:03:14.973Z,23.9
2022-08-22T14:05:22.537Z,24
2022-08-22T14:07:30.041Z,24
2022-08-22T14:08:35.374Z,23.9
2022-08-22T14:09:37.860Z,23.9
2022-08-22T14:10:41.429Z,24
2022-08-22T14:11:47.402Z,24
2022-08-22T14:12:51.252Z,23.9
2022-08-22T14:13:53.781Z,24
2022-08-22T14:14:56.448Z,23.9
2022-08-22T14:16:01.069Z,24
2022-08-22T14:17:05.411Z,23.9
2022-08-22T14:19:13.354Z,23.8
2022-08-22T14:21:21.614Z,23.9
2022-08-22T14:23:29.706Z,23.9
2022-08-22T14:25:40.112Z,24
2022-08-22T14:27:50.054Z,24
2022-08-22T14:28:53.662Z,23.9
2022-08-22T14:29:58.866Z,24
2022-08-22T14:31:02.892Z,23.9
2022-08-22T14:33:10.697Z,23.9
2022-08-22T14:34:12.909Z,23.9
2022-08-22T14:36:22.557Z,23.8
2022-08-22T14:37:27.559Z,24
2022-08-22T14:38:32.172Z,23.9
2022-08-22T14:39:35.052Z,23.9
2022-08-22T14:40:37.520Z,23.9
2022-08-22T14:42:46.666Z,23.9
2022-08-22T14:43:53.127Z,23.9
2022-08-22T14:44:55.732Z,23.9
2022-08-22T14:47:04.774Z,24
2022-08-22T14:49:17.017Z,23.9
2022-08-22T14:50:20.083Z,23.9
2022-08-22T14:51:22.128Z,23.9
2022-08-22T14:53:30.055Z,23.9
2022-08-22T14:54:32.249Z,23.9
2022-08-22T14:55:35.522Z,23.9
2022-08-22T14:56:38.646Z,23.9
2022-08-22T14:57:44.227Z,24.1
2022-08-22T14:58:48.965Z,24
2022-08-22T14:59:51.201Z,23.9
2022-08-22T15:00:53.681Z,23.9
2022-08-22T15:01:56.250Z,24
2022-08-22T15:02:59.228Z,24
2022-08-22T15:04:06.203Z,23.9
2022-08-22T15:05:08.830Z,23.9
2022-08-22T15:06:11.530Z,23.9
2022-08-22T15:07:13.823Z,23.9
2022-08-22T15:08:18.259Z,23.9
2022-08-22T15:09:24.596Z,23.9
2022-08-22T15:11:32.639Z,24
2022-08-22T15:12:38.301Z,23.9
2022-08-22T15:13:41.597Z,24
2022-08-22T15:16:54.291Z,24
2022-08-22T15:17:57.840Z,24
2022-08-22T15:19:00.388Z,24
2022-08-22T15:20:03.667Z,24
2022-08-22T15:23:16.668Z,24
2022-08-22T15:24:18.917Z,23.9
2022-08-22T15:25:21.386Z,24
2022-08-22T15:26:23.866Z,24
2022-08-22T15:27:27.912Z,24
2022-08-22T15:29:35.925Z,23.9
2022-08-22T15:32:48.688Z,24
2022-08-22T15:33:51.435Z,23.9
2022-08-22T15:34:53.980Z,24
2022-08-22T15:36:01.177Z,23.9
2022-08-22T15:39:14.277Z,23.9
2022-08-22T15:40:18.870Z,23.9
2022-08-22T15:41:22.627Z,24
2022-08-22T15:42:29.627Z,24
2022-08-22T15:44:37.200Z,23.9
2022-08-22T15:45:39.790Z,24
2022-08-22T15:46:42.432Z,23.9
2022-08-22T15:47:45.267Z,24
2022-08-22T15:49:52.459Z,24
2022-08-22T15:50:54.954Z,24
2022-08-22T15:51:57.827Z,23.9
2022-08-22T15:55:10.293Z,23.9
2022-08-22T15:56:15.594Z,23.9
2022-08-22T15:57:20.195Z,24
2022-08-22T15:58:23.418Z,24.1
2022-08-22T15:59:27.346Z,24
2022-08-22T16:00:35.484Z,23.9
2022-08-22T16:01:41.583Z,24
2022-08-22T16:02:48.150Z,23.9
2022-08-22T16:03:50.364Z,24
2022-08-22T16:04:52.841Z,23.9
2022-08-22T16:05:56.183Z,23.9
2022-08-22T16:06:58.349Z,24
2022-08-22T16:08:01.842Z,24
2022-08-22T16:09:04.410Z,23.9
2022-08-22T16:10:06.890Z,23.9
2022-08-22T16:11:09.368Z,23.9
2022-08-22T16:12:11.852Z,23.9
2022-08-22T16:13:14.052Z,23.9
2022-08-22T16:14:16.001Z,23.9
2022-08-22T16:15:19.461Z,23.9
2022-08-22T16:16:21.679Z,23.9
2022-08-22T16:17:23.875Z,23.9
2022-08-22T16:18:26.369Z,23.9
2022-08-22T16:19:28.845Z,23.9
2022-08-22T16:20:31.229Z,23.9
2022-08-22T16:21:33.438Z,23.9
2022-08-22T16:22:35.962Z,23.9
2022-08-22T16:23:38.439Z,23.9
2022-08-22T16:24:41.478Z,23.8
2022-08-22T16:25:49.623Z,24
2022-08-22T16:26:51.864Z,24
2022-08-22T16:27:54.242Z,23.9
2022-08-22T16:30:01.671Z,24
2022-08-22T16:31:03.877Z,24
2022-08-22T16:32:06.069Z,24